Time;durP1;ratioP1;P1;durP2;ratioP2;P2;SDS_P1;SDS_P2;PMS_P1;PMS_P2;Temp;Humidity;BMP_temperature;BMP_pressure;BME280_temperature;BME280_humidity;BME280_pressure;Samples;Min_cycle;Max_cycle;Signal;HPM_P1;HPM_P2
2022/07/03 00:00:34;;;;;;;;;1.50;1.50;;;;;20.25;48.61;101580.09;5109387;27;46426;-68
2022/07/03 00:03:00;;;;;;;;;2.50;2.00;;;;;20.22;48.92;101577.59;5105156;27;45407;-67
2022/07/03 00:05:25;;;;;;;;;0.25;0.25;;;;;20.22;48.96;101577.59;5100683;27;45326;-67
2022/07/03 00:07:51;;;;;;;;;2.25;1.00;;;;;20.21;49.26;101573.22;5100565;27;45301;-67
2022/07/03 00:10:16;;;;;;;;;2.00;2.00;;;;;20.17;48.70;101570.84;5100168;27;46218;-67
2022/07/03 00:12:42;;;;;;;;;1.00;1.00;;;;;20.15;48.68;101576.22;5100372;27;45215;-67
2022/07/03 00:15:08;;;;;;;;;0.50;0.50;;;;;20.16;48.90;101572.63;5100526;27;45225;-67
2022/07/03 00:17:33;;;;;;;;;2.00;1.00;;;;;20.17;48.86;101574.34;5100130;27;45359;-67
2022/07/03 00:19:58;;;;;;;;;0.50;0.50;;;;;20.14;49.16;101565.75;5116201;27;49620;-67
2022/07/03 00:22:25;;;;;;;;;1.00;1.00;;;;;20.12;48.73;101581.66;5116353;27;45433;-66
2022/07/03 00:24:53;;;;;;;;;2.00;1.00;;;;;20.09;49.13;101579.19;5100488;27;45381;-65
2022/07/03 00:27:20;;;;;;;;;1.50;1.00;;;;;20.04;49.24;101581.25;5099904;27;45368;-65
2022/07/03 00:29:46;;;;;;;;;1.00;1.00;;;;;20.02;49.45;101577.81;5099974;27;45625;-65
2022/07/03 00:32:17;;;;;;;;;3.25;2.50;;;;;20.04;49.46;101573.31;5099906;27;45156;-66
2022/07/03 00:34:43;;;;;;;;;2.00;2.00;;;;;19.99;49.03;101568.28;5097826;27;45528;-66
2022/07/03 00:37:10;;;;;;;;;1.00;1.00;;;;;19.95;48.90;101565.88;5099856;27;45472;-66
2022/07/03 00:39:38;;;;;;;;;2.00;1.25;;;;;19.91;48.97;101573.13;5100173;27;46416;-65
2022/07/03 00:42:04;;;;;;;;;3.75;2.00;;;;;19.88;49.24;101565.38;5099786;27;45219;-65
2022/07/03 00:44:32;;;;;;;;;1.00;1.00;;;;;19.84;49.66;101569.09;5099478;27;45424;-66
2022/07/03 00:46:59;;;;;;;;;3.00;1.00;;;;;19.80;49.12;101571.97;5098171;27;45352;-66
2022/07/03 00:49:25;;;;;;;;;1.00;1.00;;;;;19.75;49.66;101570.44;5088578;27;45480;-65
2022/07/03 00:51:53;;;;;;;;;1.00;1.00;;;;;19.74;49.76;101574.00;5078193;27;45323;-65
2022/07/03 00:54:22;;;;;;;;;1.75;1.75;;;;;19.69;49.31;101576.03;5078971;27;45387;-65
2022/07/03 00:56:54;;;;;;;;;1.00;1.00;;;;;19.64;49.68;101578.06;5077822;27;45285;-66
2022/07/03 00:59:20;;;;;;;;;1.25;1.25;;;;;19.58;49.23;101573.09;5078586;27;45513;-66
2022/07/03 01:01:46;;;;;;;;;1.00;1.00;;;;;19.54;49.65;101582.09;5078472;28;45168;-66
2022/07/03 01:04:15;;;;;;;;;1.00;1.00;;;;;19.51;49.57;101582.22;5078395;27;45353;-66
2022/07/03 01:06:52;;;;;;;;;1.00;1.00;;;;;19.45;49.41;101572.84;5078035;27;45326;-66
2022/07/03 01:09:26;;;;;;;;;1.00;1.00;;;;;19.42;49.70;101574.75;5078257;27;45309;-65
2022/07/03 01:12:03;;;;;;;;;2.50;1.50;;;;;19.42;49.59;101577.41;5078274;27;45334;-67
2022/07/03 01:14:45;;;;;;;;;1.00;1.00;;;;;19.40;48.68;101576.63;5078365;27;45302;-66
2022/07/03 01:17:21;;;;;;;;;1.50;1.00;;;;;19.33;49.19;101577.88;5093980;27;45451;-66
2022/07/03 01:19:49;;;;;;;;;1.50;1.00;;;;;19.27;49.42;101580.84;5078410;27;45430;-66
2022/07/03 01:22:37;;;;;;;;;1.25;1.25;;;;;19.26;49.67;101580.00;5078042;27;45271;-66
2022/07/03 01:25:03;;;;;;;;;1.00;1.00;;;;;19.27;50.27;101579.06;5078769;27;45359;-66
2022/07/03 01:27:34;;;;;;;;;1.00;1.00;;;;;19.29;49.73;101582.47;5078109;27;45450;-66
2022/07/03 01:30:05;;;;;;;;;3.00;1.25;;;;;19.29;50.05;101586.88;5078057;27;46403;-66
2022/07/03 01:32:42;;;;;;;;;0.75;0.75;;;;;19.28;49.50;101587.81;5077573;28;45551;-66
2022/07/03 01:35:10;;;;;;;;;1.00;1.00;;;;;19.25;50.14;101580.06;5078132;28;45292;-66
2022/07/03 01:37:38;;;;;;;;;0.00;0.00;;;;;19.24;49.90;101581.84;5077903;27;45393;-65
2022/07/03 01:40:05;;;;;;;;;3.00;3.00;;;;;19.26;49.77;101582.63;5077724;27;45762;-65
2022/07/03 01:42:34;;;;;;;;;1.25;1.25;;;;;19.25;49.80;101582.69;5078117;27;45292;-65
2022/07/03 01:45:00;;;;;;;;;1.75;1.75;;;;;19.19;50.19;101575.09;5077955;27;45468;-65
2022/07/03 01:47:26;;;;;;;;;2.00;2.00;;;;;19.21;49.74;101581.97;5081025;28;45681;-66
2022/07/03 01:49:53;;;;;;;;;3.00;3.00;;;;;19.22;49.92;101580.19;5081536;27;46496;-66
2022/07/03 01:52:22;;;;;;;;;3.25;3.25;;;;;19.22;49.73;101583.72;5081470;27;45351;-66
2022/07/03 01:54:48;;;;;;;;;2.00;2.00;;;;;19.20;50.24;101577.63;5081433;28;45226;-65
2022/07/03 01:57:14;;;;;;;;;1.50;1.50;;;;;19.20;49.97;101579.41;5080902;27;45405;-66
2022/07/03 01:59:40;;;;;;;;;2.25;1.00;;;;;19.18;50.10;101574.22;5081597;27;45769;-66
2022/07/03 02:02:17;;;;;;;;;1.00;1.00;;;;;19.17;50.32;101585.69;5081474;27;45618;-67
2022/07/03 02:04:58;;;;;;;;;2.00;1.50;;;;;19.10;50.20;101574.63;5081753;27;45444;-67
2022/07/03 02:07:39;;;;;;;;;1.75;1.75;;;;;19.10;50.46;101571.13;5092811;27;45453;-67
2022/07/03 02:10:06;;;;;;;;;1.00;1.00;;;;;19.07;50.60;101574.78;5067671;28;45419;-67
2022/07/03 02:12:47;;;;;;;;;1.50;1.50;;;;;19.02;51.00;101578.53;5081349;27;45409;-67
2022/07/03 02:15:17;;;;;;;;;0.75;0.75;;;;;19.00;50.85;101580.41;5089064;27;45346;-67
2022/07/03 02:17:45;;;;;;;;;1.00;1.00;;;;;18.98;50.64;101574.38;5085487;27;45269;-67
2022/07/03 02:20:12;;;;;;;;;1.50;1.50;;;;;18.92;50.85;101574.69;5090906;27;45592;-67
2022/07/03 02:22:41;;;;;;;;;2.50;2.00;;;;;18.83;51.49;101576.84;5084660;27;45401;-67
2022/07/03 02:25:12;;;;;;;;;2.75;2.00;;;;;18.76;52.16;101564.03;5081855;27;45506;-67
2022/07/03 02:27:55;;;;;;;;;2.25;2.00;;;;;18.70;52.15;101573.09;5081371;27;45643;-68
2022/07/03 02:30:23;;;;;;;;;2.50;1.25;;;;;18.62;52.77;101572.56;5080787;27;45566;-67
2022/07/03 02:32:50;;;;;;;;;1.25;1.25;;;;;18.55;52.85;101574.63;5081072;27;45279;-67
2022/07/03 02:35:25;;;;;;;;;2.00;2.00;;;;;18.51;53.29;101578.34;5081541;28;45365;-69
2022/07/03 02:38:01;;;;;;;;;3.00;2.00;;;;;18.43;53.16;101575.22;5080783;27;45526;-69
2022/07/03 02:40:32;;;;;;;;;1.00;1.00;;;;;18.39;53.47;101583.31;5081194;27;45770;-68
2022/07/03 02:43:00;;;;;;;;;3.00;3.00;;;;;18.35;53.96;101579.97;5081346;27;45434;-68
2022/07/03 02:45:36;;;;;;;;;1.25;1.25;;;;;18.32;54.22;101584.53;5081352;28;45251;-69
2022/07/03 02:48:11;;;;;;;;;3.75;3.00;;;;;18.29;54.25;101590.78;5080785;27;45273;-67
2022/07/03 02:50:40;;;;;;;;;4.75;2.50;;;;;18.24;54.44;101598.91;5080756;28;45650;-68
2022/07/03 02:53:26;;;;;;;;;3.75;2.25;;;;;18.22;54.84;101597.28;5080868;27;45555;-68
2022/07/03 02:56:04;;;;;;;;;3.00;2.00;;;;;18.20;54.47;101601.72;5080992;27;45348;-69
2022/07/03 02:58:48;;;;;;;;;2.75;2.75;;;;;18.20;54.86;101605.19;5070981;27;45557;-69
2022/07/03 03:01:32;;;;;;;;;5.00;3.00;;;;;18.20;55.06;101606.97;5080002;28;46361;-67
2022/07/03 03:04:00;;;;;;;;;0.25;0.00;;;;;18.18;54.91;101608.84;5080447;27;45673;-67
2022/07/03 03:06:26;;;;;;;;;3.75;3.75;;;;;18.14;55.17;101610.75;5080649;28;45319;-68
2022/07/03 03:09:02;;;;;;;;;2.75;2.75;;;;;18.11;55.52;101610.03;5080070;27;45415;-68
2022/07/03 03:11:45;;;;;;;;;3.25;2.00;;;;;18.04;55.21;101606.00;5080072;27;45507;-68
2022/07/03 03:14:15;;;;;;;;;2.25;2.25;;;;;17.97;55.71;101607.16;5080407;27;45554;-68
2022/07/03 03:16:47;;;;;;;;;4.25;3.00;;;;;17.89;56.17;101607.50;5080706;28;45138;-67
2022/07/03 03:19:12;;;;;;;;;2.00;2.00;;;;;17.82;56.40;101606.94;5080117;27;45298;-67
2022/07/03 03:22:04;;;;;;;;;4.50;2.00;;;;;17.74;56.33;101605.53;5080504;27;46864;-67
2022/07/03 03:24:31;;;;;;;;;2.75;2.75;;;;;17.64;56.53;101605.06;5076607;27;45769;-66
2022/07/03 03:26:57;;;;;;;;;3.00;3.00;;;;;17.60;56.40;101603.47;5079655;27;45350;-67
2022/07/03 03:29:23;;;;;;;;;2.75;1.75;;;;;17.58;57.14;101594.81;5079660;27;45294;-67
2022/07/03 03:31:48;;;;;;;;;2.00;2.00;;;;;17.56;56.92;101601.91;5092235;27;46466;-67
2022/07/03 03:34:15;;;;;;;;;2.00;2.00;;;;;17.56;56.96;101597.50;5079363;27;45281;-67
2022/07/03 03:36:41;;;;;;;;;3.00;3.00;;;;;17.55;56.87;101601.03;5095939;27;45322;-67
2022/07/03 03:39:07;;;;;;;;;3.00;3.00;;;;;17.53;57.02;101594.16;5080226;27;45501;-67
2022/07/03 03:41:33;;;;;;;;;3.00;2.00;;;;;17.54;57.33;101598.50;5079811;28;45713;-67
2022/07/03 03:43:59;;;;;;;;;4.00;3.00;;;;;17.51;57.19;101598.63;5079749;27;45704;-68
2022/07/03 03:46:24;;;;;;;;;2.00;2.00;;;;;17.50;57.40;101604.81;5079872;27;45512;-67
2022/07/03 03:48:49;;;;;;;;;4.25;3.00;;;;;17.47;57.35;101602.31;5075291;27;45534;-68
2022/07/03 03:51:15;;;;;;;;;2.00;2.00;;;;;17.44;57.66;101602.44;5079509;27;46255;-67
2022/07/03 03:53:40;;;;;;;;;5.00;4.00;;;;;17.40;57.48;101599.06;5095069;27;46029;-67
2022/07/03 03:56:08;;;;;;;;;5.25;2.25;;;;;17.34;57.83;101604.59;5079526;27;45415;-67
2022/07/03 03:58:36;;;;;;;;;2.00;2.00;;;;;17.27;58.13;101605.78;5079219;27;45287;-67
2022/07/03 04:01:04;;;;;;;;;2.00;2.00;;;;;17.24;58.00;101604.13;5079505;27;46366;-67
2022/07/03 04:03:30;;;;;;;;;2.00;2.00;;;;;17.24;57.93;101608.53;5079175;27;45373;-65
2022/07/03 04:05:56;;;;;;;;;1.50;1.50;;;;;17.21;58.11;101606.00;5079787;27;45357;-67
2022/07/03 04:08:22;;;;;;;;;4.00;3.00;;;;;17.21;58.27;101612.09;5079801;27;45312;-66
2022/07/03 04:10:48;;;;;;;;;3.50;3.50;;;;;17.25;58.36;101610.22;5078195;27;45280;-65
2022/07/03 04:13:15;;;;;;;;;2.25;2.25;;;;;17.24;58.32;101609.38;5086201;27;45334;-65
2022/07/03 04:15:41;;;;;;;;;2.00;2.00;;;;;17.29;58.33;101620.53;5086223;27;45305;-66
2022/07/03 04:18:06;;;;;;;;;3.00;2.00;;;;;17.24;58.68;101614.63;5064403;28;45863;-65
2022/07/03 04:20:32;;;;;;;;;4.50;3.00;;;;;17.24;58.60;101621.66;5079323;27;46217;-65
2022/07/03 04:22:57;;;;;;;;;3.50;3.00;;;;;17.24;58.95;101619.03;5077726;28;45290;-65
2022/07/03 04:25:23;;;;;;;;;2.50;2.50;;;;;17.25;58.77;101624.22;5079548;27;45322;-65
2022/07/03 04:27:48;;;;;;;;;2.00;2.00;;;;;17.24;59.11;101622.50;5079090;27;45313;-65
2022/07/03 04:30:14;;;;;;;;;3.50;2.00;;;;;17.25;59.13;101626.00;5078695;28;45657;-64
2022/07/03 04:32:40;;;;;;;;;3.00;2.75;;;;;17.28;58.51;101621.47;5078445;28;45344;-63
2022/07/03 04:35:06;;;;;;;;;4.50;3.50;;;;;17.37;58.64;101629.88;5079284;28;45341;-64
2022/07/03 04:37:32;;;;;;;;;2.75;2.75;;;;;17.45;58.81;101627.81;5079126;27;45397;-65
2022/07/03 04:39:57;;;;;;;;;3.00;3.00;;;;;17.50;58.20;101633.72;5078376;27;46323;-64
2022/07/03 04:42:22;;;;;;;;;2.00;2.00;;;;;17.47;58.37;101633.84;5079145;27;45243;-64
2022/07/03 04:44:48;;;;;;;;;3.00;3.00;;;;;17.45;58.38;101636.53;5079279;28;45283;-65
2022/07/03 04:47:14;;;;;;;;;2.00;2.00;;;;;17.45;58.21;101640.94;5079172;28;45479;-66
2022/07/03 04:49:40;;;;;;;;;4.00;2.75;;;;;17.46;58.03;101638.25;5077601;28;48483;-66
2022/07/03 04:52:06;;;;;;;;;3.00;3.00;;;;;17.47;58.07;101634.69;5079481;27;45423;-66
2022/07/03 04:54:31;;;;;;;;;2.00;2.00;;;;;17.51;58.28;101641.53;5079050;27;45702;-66
2022/07/03 04:56:57;;;;;;;;;2.00;2.00;;;;;17.54;58.22;101637.91;5078442;27;45342;-66
2022/07/03 04:59:22;;;;;;;;;3.00;3.00;;;;;17.56;58.33;101628.19;5079161;28;45499;-66
2022/07/03 05:01:49;;;;;;;;;4.00;3.25;;;;;17.66;58.18;101633.91;5078729;27;45361;-67
2022/07/03 05:04:15;;;;;;;;;3.25;3.25;;;;;17.75;58.21;101630.91;5079309;27;45272;-67
2022/07/03 05:06:40;;;;;;;;;2.00;2.00;;;;;17.81;58.16;101628.88;5078978;27;45315;-68
2022/07/03 05:09:05;;;;;;;;;3.75;2.00;;;;;17.85;57.95;101633.09;5091002;27;45366;-68
2022/07/03 05:11:31;;;;;;;;;2.00;2.00;;;;;17.87;57.99;101641.78;5079864;27;45448;-67
2022/07/03 05:13:56;;;;;;;;;1.00;1.00;;;;;17.89;58.08;101634.66;5078783;27;45227;-67
2022/07/03 05:16:22;;;;;;;;;1.00;1.00;;;;;17.94;58.51;101639.72;5078741;27;45316;-67
2022/07/03 05:18:47;;;;;;;;;3.00;2.00;;;;;17.97;58.17;101654.50;5090494;27;46525;-68
2022/07/03 05:21:12;;;;;;;;;2.75;2.75;;;;;17.99;58.25;101650.03;5079654;27;45210;-67
2022/07/03 05:23:38;;;;;;;;;1.25;1.25;;;;;18.01;58.10;101638.50;5078242;27;45344;-67
2022/07/03 05:26:03;;;;;;;;;4.00;2.50;;;;;18.03;57.97;101649.00;5078377;27;45241;-67
2022/07/03 05:28:28;;;;;;;;;1.75;1.75;;;;;18.03;57.96;101639.34;5078169;27;45438;-66
2022/07/03 05:30:55;;;;;;;;;1.50;1.50;;;;;18.06;57.98;101641.81;5078615;27;45282;-61
2022/07/03 05:33:20;;;;;;;;;2.50;1.00;;;;;18.13;58.07;101643.25;5078239;27;45282;-65
2022/07/03 05:35:46;;;;;;;;;4.00;3.00;;;;;18.18;57.94;101637.78;5078267;27;45367;-65
2022/07/03 05:38:11;;;;;;;;;1.50;1.50;;;;;18.20;57.80;101643.81;5078146;27;46183;-65
2022/07/03 05:40:36;;;;;;;;;1.00;0.50;;;;;18.22;57.59;101640.22;5077966;27;45291;-65
2022/07/03 05:43:02;;;;;;;;;2.00;2.00;;;;;18.29;57.95;101645.19;5078301;27;45340;-65
2022/07/03 05:45:27;;;;;;;;;2.00;2.00;;;;;18.33;57.99;101639.72;5077980;27;45290;-68
2022/07/03 05:47:53;;;;;;;;;2.00;1.00;;;;;18.42;57.83;101651.59;5076114;28;45734;-64
2022/07/03 05:50:18;;;;;;;;;1.50;1.00;;;;;18.46;57.62;101648.78;5077888;27;45255;-66
2022/07/03 05:52:44;;;;;;;;;1.00;1.00;;;;;18.49;57.87;101655.69;5077856;28;45248;-66
2022/07/03 05:55:09;;;;;;;;;1.50;1.00;;;;;18.50;57.83;101652.97;5077751;27;45514;-66
2022/07/03 05:57:35;;;;;;;;;1.75;1.25;;;;;18.55;57.77;101650.13;5077354;27;45519;-66
2022/07/03 06:00:01;;;;;;;;;1.00;1.00;;;;;18.59;57.76;101658.72;5077575;27;45410;-66
2022/07/03 06:02:27;;;;;;;;;2.00;2.00;;;;;18.67;57.62;101651.38;5077580;27;45514;-66
2022/07/03 06:04:52;;;;;;;;;2.00;1.00;;;;;18.68;57.57;101653.94;5076286;28;45406;-66
2022/07/03 06:07:17;;;;;;;;;1.75;1.75;;;;;18.72;57.94;101652.84;5077797;27;45409;-65
2022/07/03 06:09:44;;;;;;;;;3.50;3.00;;;;;18.76;57.88;101667.56;5076952;28;45257;-69
2022/07/03 06:12:09;;;;;;;;;1.75;1.75;;;;;18.80;58.27;101661.25;5078078;27;45373;-69
2022/07/03 06:14:35;;;;;;;;;1.50;1.50;;;;;18.84;58.13;101654.94;5076641;28;45538;-68
2022/07/03 06:17:00;;;;;;;;;1.50;1.50;;;;;18.88;57.98;101655.63;5077467;27;45222;-68
2022/07/03 06:19:26;;;;;;;;;3.50;1.00;;;;;18.97;58.66;101664.84;5077566;27;46467;-68
2022/07/03 06:21:51;;;;;;;;;2.00;2.00;;;;;18.99;58.23;101665.63;5077810;27;45338;-68
2022/07/03 06:24:16;;;;;;;;;1.50;1.50;;;;;18.99;58.26;101666.50;5077632;27;45511;-68
2022/07/03 06:26:42;;;;;;;;;1.00;1.00;;;;;19.04;58.57;101668.94;5077564;27;46267;-69
2022/07/03 06:29:07;;;;;;;;;2.00;2.00;;;;;19.13;58.07;101666.69;5077254;27;45401;-68
2022/07/03 06:31:33;;;;;;;;;2.00;2.00;;;;;19.18;58.40;101668.25;5076424;28;45329;-67
2022/07/03 06:33:58;;;;;;;;;2.00;2.00;;;;;19.23;58.33;101661.84;5077997;28;45542;-67
2022/07/03 06:36:23;;;;;;;;;2.00;2.00;;;;;19.30;58.32;101659.75;5096505;27;46318;-66
2022/07/03 06:38:49;;;;;;;;;2.50;2.00;;;;;19.34;58.34;101661.31;5080370;27;45333;-66
2022/07/03 06:41:14;;;;;;;;;3.75;1.00;;;;;19.44;58.30;101657.28;5080806;27;45463;-68
2022/07/03 06:43:39;;;;;;;;;2.25;2.25;;;;;19.54;58.39;101658.56;5080507;27;45534;-68
2022/07/03 06:46:05;;;;;;;;;3.00;3.00;;;;;19.63;58.25;101659.91;5081022;27;45358;-69
2022/07/03 06:48:30;;;;;;;;;2.50;2.00;;;;;19.76;57.51;101666.22;5080339;27;45340;-69
2022/07/03 06:50:55;;;;;;;;;2.00;2.00;;;;;19.78;57.77;101659.09;5081341;27;45292;-69
2022/07/03 06:53:21;;;;;;;;;5.00;3.25;;;;;19.82;57.52;101671.19;5079744;27;45520;-68
2022/07/03 06:55:46;;;;;;;;;4.75;3.50;;;;;19.84;57.51;101668.50;5080654;27;46125;-68
2022/07/03 06:58:11;;;;;;;;;3.25;3.25;;;;;19.85;57.07;101664.94;5080007;27;45220;-68
2022/07/03 07:00:38;;;;;;;;;3.00;3.00;;;;;19.85;57.30;101664.94;5081123;27;45299;-68
2022/07/03 07:03:03;;;;;;;;;2.00;2.00;;;;;19.89;56.93;101675.22;5080237;27;45281;-67
2022/07/03 07:05:29;;;;;;;;;6.00;2.00;;;;;19.97;57.40;101669.56;5080492;27;45363;-68
2022/07/03 07:07:54;;;;;;;;;8.50;6.75;;;;;20.08;56.54;101676.91;5080371;27;45269;-66
2022/07/03 07:10:19;;;;;;;;;7.00;5.75;;;;;20.13;56.53;101678.38;5080329;27;45306;-67
2022/07/03 07:12:45;;;;;;;;;4.00;4.00;;;;;20.21;56.48;101684.09;5080205;27;45536;-72
2022/07/03 07:15:10;;;;;;;;;6.50;5.75;;;;;20.24;55.83;101676.03;5080610;27;46231;-66
2022/07/03 07:17:35;;;;;;;;;6.25;4.00;;;;;20.20;56.49;101687.66;5079868;27;45450;-69
2022/07/03 07:20:01;;;;;;;;;5.25;3.25;;;;;20.31;55.76;101690.63;5078337;27;45363;-66
2022/07/03 07:22:26;;;;;;;;;5.50;4.25;;;;;20.25;55.69;101683.03;5073011;27;45295;-70
2022/07/03 07:24:52;;;;;;;;;5.25;5.25;;;;;20.26;56.19;101686.50;5078226;27;46280;-68
2022/07/03 07:27:18;;;;;;;;;6.50;6.50;;;;;20.33;55.71;101683.47;5080175;27;45418;-68
2022/07/03 07:29:43;;;;;;;;;6.50;5.00;;;;;20.30;55.69;101690.69;5080612;27;45491;-67
2022/07/03 07:32:09;;;;;;;;;5.50;5.00;;;;;20.32;56.11;101686.19;5071144;27;45507;-67
2022/07/03 07:34:34;;;;;;;;;3.25;3.25;;;;;20.43;55.74;101691.78;5079928;27;45318;-69
2022/07/03 07:36:59;;;;;;;;;6.50;5.25;;;;;20.52;56.04;101693.06;5091853;27;45636;-68
2022/07/03 07:39:25;;;;;;;;;8.00;6.75;;;;;20.59;55.52;101697.06;5080906;27;45406;-67
2022/07/03 07:41:50;;;;;;;;;10.25;6.00;;;;;20.58;55.61;101683.00;5079388;27;45462;-68
2022/07/03 07:44:15;;;;;;;;;6.75;5.00;;;;;20.58;55.62;101692.72;5079562;27;45326;-68
2022/07/03 07:46:41;;;;;;;;;6.50;6.00;;;;;20.67;55.52;101689.59;5079636;27;45325;-67
2022/07/03 07:49:06;;;;;;;;;5.25;5.00;;;;;20.76;55.20;101690.88;5080025;27;45314;-67
2022/07/03 07:51:31;;;;;;;;;5.25;1.00;;;;;20.87;54.52;101680.59;5080041;27;45604;-65
2022/07/03 07:53:57;;;;;;;;;4.00;4.00;;;;;20.87;55.04;101694.66;5079559;27;46269;-66
2022/07/03 07:56:26;;;;;;;;;4.75;4.50;;;;;20.95;54.69;101694.22;5078824;27;45425;-67
2022/07/03 07:58:52;;;;;;;;;4.50;3.75;;;;;21.00;54.04;101692.16;5078898;27;45506;-68
2022/07/03 08:06:47;;;;;;;;;4.25;4.25;;;;;21.28;53.70;101683.56;5078870;28;45378;-67
2022/07/03 08:09:12;;;;;;;;;2.50;2.50;;;;;21.38;54.05;101691.81;5079349;27;45378;-66
2022/07/03 08:11:38;;;;;;;;;5.25;5.00;;;;;21.48;53.55;101685.06;5078871;27;45329;-65
2022/07/03 08:14:04;;;;;;;;;4.75;2.25;;;;;21.60;52.87;101702.00;5092062;27;46779;-67
2022/07/03 08:16:30;;;;;;;;;5.25;3.25;;;;;21.60;53.54;101686.13;5095062;27;45769;-69
2022/07/03 08:18:56;;;;;;;;;2.50;2.50;;;;;21.69;53.39;101691.75;5070566;28;45503;-68
2022/07/03 08:21:21;;;;;;;;;4.50;3.75;;;;;21.75;53.08;101687.88;5079988;28;45397;-66
2022/07/03 08:23:47;;;;;;;;;5.50;3.50;;;;;21.81;52.93;101688.34;5094852;27;47954;-68
2022/07/03 08:26:12;;;;;;;;;5.75;4.75;;;;;21.82;53.04;101684.78;5079032;27;45291;-66
2022/07/03 08:28:38;;;;;;;;;3.25;3.25;;;;;21.88;52.50;101683.56;5078535;28;45386;-65
2022/07/03 08:31:03;;;;;;;;;3.50;2.75;;;;;21.97;52.50;101687.44;5078917;27;45301;-66
2022/07/03 08:33:28;;;;;;;;;4.00;4.00;;;;;22.01;52.52;101684.50;5078213;27;46192;-68
2022/07/03 08:35:54;;;;;;;;;5.00;4.00;;;;;22.12;52.15;101687.41;5074377;27;45534;-66
2022/07/03 08:38:19;;;;;;;;;2.00;2.00;;;;;22.19;51.46;101684.38;5076955;28;45421;-69
2022/07/03 08:40:45;;;;;;;;;4.00;4.00;;;;;22.23;51.43;101691.22;5079188;27;45267;-68
2022/07/03 08:43:10;;;;;;;;;5.50;4.25;;;;;22.22;51.29;101692.13;5078569;27;45267;-68
2022/07/03 08:45:37;;;;;;;;;4.00;4.00;;;;;22.27;51.67;101679.50;5086046;27;45269;-67
2022/07/03 08:48:04;;;;;;;;;4.25;3.25;;;;;22.35;51.49;101683.34;5084173;27;45361;-69
2022/07/03 08:50:33;;;;;;;;;6.00;5.00;;;;;22.31;51.09;101681.00;5077909;28;45449;-63
2022/07/03 08:52:59;;;;;;;;;5.25;3.75;;;;;22.31;50.77;101675.69;5076967;27;45551;-70
2022/07/03 08:55:25;;;;;;;;;5.00;5.00;;;;;22.35;50.69;101682.50;5076512;27;45364;-68
2022/07/03 08:57:51;;;;;;;;;6.50;4.50;;;;;22.44;50.93;101677.50;5077225;27;45480;-68
2022/07/03 09:00:18;;;;;;;;;4.75;2.00;;;;;22.60;50.66;101689.75;5077135;27;45487;-66
2022/07/03 09:02:47;;;;;;;;;4.00;4.00;;;;;22.68;50.10;101691.00;5077110;27;45499;-66
2022/07/03 09:05:13;;;;;;;;;4.00;3.25;;;;;22.77;49.55;101694.84;5078270;27;45337;-67
2022/07/03 09:07:40;;;;;;;;;4.50;4.00;;;;;22.78;50.09;101686.81;5076403;27;45568;-70
2022/07/03 09:10:08;;;;;;;;;2.25;2.00;;;;;22.99;49.80;101681.97;5076419;27;45516;-66
2022/07/03 09:12:34;;;;;;;;;4.75;3.75;;;;;23.13;49.64;101691.69;5077550;27;45416;-66
2022/07/03 09:15:02;;;;;;;;;3.50;3.00;;;;;22.99;48.72;101679.31;5078495;27;45339;-67
2022/07/03 09:17:28;;;;;;;;;4.00;3.00;;;;;22.77;49.45;101682.47;5073373;28;45252;-68
2022/07/03 09:19:53;;;;;;;;;5.75;4.25;;;;;22.85;49.18;101675.88;5076527;27;45161;-68
2022/07/03 09:22:28;;;;;;;;;4.00;4.00;;;;;22.88;49.29;101683.63;5078435;27;46045;-69
2022/07/03 09:25:09;;;;;;;;;6.25;5.75;;;;;22.86;49.02;101680.22;5074147;27;45389;-70
2022/07/03 09:27:39;;;;;;;;;4.75;4.50;;;;;22.96;49.07;101682.16;5078295;27;45360;-68
2022/07/03 09:30:06;;;;;;;;;3.50;3.50;;;;;23.14;49.48;101692.53;5078487;27;45213;-67
2022/07/03 09:32:38;;;;;;;;;5.00;5.00;;;;;23.09;48.48;101684.88;5093205;27;47325;-69
2022/07/03 09:35:26;;;;;;;;;6.25;5.50;;;;;22.90;48.71;101690.53;5077180;27;45548;-65
2022/07/03 09:37:54;;;;;;;;;5.75;5.25;;;;;22.74;48.96;101682.66;5066735;28;45575;-68
2022/07/03 09:40:20;;;;;;;;;7.00;7.00;;;;;22.77;48.96;101668.34;5078303;27;45462;-63
2022/07/03 09:42:58;;;;;;;;;7.00;4.75;;;;;22.95;48.23;101683.13;5077981;27;45422;-66
2022/07/03 09:45:24;;;;;;;;;4.75;4.75;;;;;22.92;48.13;101685.97;5077960;27;45566;-65
2022/07/03 09:47:49;;;;;;;;;7.00;7.00;;;;;22.96;48.50;101673.34;5093942;27;45330;-68
2022/07/03 09:50:15;;;;;;;;;8.00;6.75;;;;;23.30;48.70;101678.16;5078123;27;45249;-70
2022/07/03 09:52:46;;;;;;;;;8.50;7.00;;;;;23.65;47.71;101672.34;5077842;27;45404;-66
2022/07/03 09:55:28;;;;;;;;;7.75;7.50;;;;;23.72;46.79;101676.28;5077164;28;45321;-70
2022/07/03 09:57:53;;;;;;;;;4.00;4.00;;;;;23.74;46.43;101678.84;5076419;27;64191;-73
2022/07/03 10:00:20;;;;;;;;;9.67;8.00;;;;;23.63;47.37;101671.63;5077290;27;45292;-76
2022/07/03 10:02:57;;;;;;;;;8.75;7.75;;;;;23.57;46.85;101680.81;5076990;27;45443;-70
2022/07/03 10:05:27;;;;;;;;;7.25;5.75;;;;;23.66;47.15;101680.22;5078236;27;45493;-67
2022/07/03 10:07:58;;;;;;;;;6.25;6.00;;;;;23.77;46.70;101678.63;5095790;27;45435;-68
2022/07/03 10:10:26;;;;;;;;;6.25;6.25;;;;;24.08;46.92;101680.88;5096872;27;45763;-66
2022/07/03 10:12:55;;;;;;;;;9.25;8.00;;;;;24.30;46.88;101688.25;5081178;27;45579;-67
2022/07/03 10:15:22;;;;;;;;;6.75;6.75;;;;;24.33;44.40;101685.38;5081077;27;45392;-71
2022/07/03 10:17:49;;;;;;;;;9.75;9.50;;;;;24.30;45.71;101684.72;5080821;28;45221;-69
2022/07/03 10:20:19;;;;;;;;;7.75;7.00;;;;;24.36;44.51;101686.94;5081374;27;45407;-69
2022/07/03 10:22:47;;;;;;;;;8.50;7.00;;;;;24.26;45.33;101700.00;5102422;27;48010;-73
2022/07/03 10:25:14;;;;;;;;;5.00;4.75;;;;;24.37;44.84;101689.50;5088547;27;45431;-67
2022/07/03 10:27:40;;;;;;;;;6.00;6.00;;;;;24.47;44.80;101695.88;5081144;28;45281;-69
2022/07/03 10:30:06;;;;;;;;;7.25;6.50;;;;;24.49;44.41;101683.31;5080993;27;45177;-70
2022/07/03 10:32:33;;;;;;;;;8.25;6.50;;;;;24.56;43.51;101695.22;5080718;28;45418;-66
2022/07/03 10:34:58;;;;;;;;;5.50;5.50;;;;;24.49;43.34;101690.44;5077269;27;45366;-63
2022/07/03 10:37:30;;;;;;;;;7.50;7.25;;;;;24.50;43.88;101695.66;5091514;27;45669;-64
2022/07/03 10:46:10;;;;;;;;;9.25;6.25;;;;;25.27;43.09;101675.03;5080662;28;45587;-66
2022/07/03 10:49:11;;;;;;;;;7.75;5.75;;;;;25.29;42.93;101681.06;5080449;27;45517;-65
2022/07/03 10:52:03;;;;;;;;;10.00;5.75;;;;;25.28;41.81;101689.16;5057260;28;45418;-67
2022/07/03 10:54:33;;;;;;;;;9.50;9.50;;;;;25.08;42.90;101685.31;5075423;28;46536;-67
2022/07/03 10:57:01;;;;;;;;;6.00;4.25;;;;;25.14;43.01;101693.69;5074363;27;45656;-65
2022/07/03 10:59:35;;;;;;;;;6.25;4.75;;;;;25.10;42.29;101692.22;5078687;28;45458;-65
2022/07/03 11:02:27;;;;;;;;;6.25;5.75;;;;;24.92;42.76;101687.38;5076594;28;45467;-67
2022/07/03 11:05:01;;;;;;;;;6.00;6.00;;;;;24.88;43.07;101690.25;5078584;28;46101;-68
2022/07/03 11:07:28;;;;;;;;;7.00;6.00;;;;;24.97;43.46;101686.06;5076859;28;45606;-67
2022/07/03 11:10:08;;;;;;;;;6.00;5.00;;;;;25.17;41.68;101689.94;5079430;28;45501;-66
2022/07/03 11:13:05;;;;;;;;;3.25;3.25;;;;;25.25;42.37;101684.94;5077577;28;45356;-66
2022/07/03 11:15:37;;;;;;;;;6.00;4.75;;;;;25.47;42.25;101689.50;5075080;28;45805;-67
2022/07/03 11:18:08;;;;;;;;;3.50;3.50;;;;;25.62;41.91;101683.00;5076828;27;45566;-68
2022/07/03 11:20:43;;;;;;;;;4.50;4.00;;;;;25.66;41.67;101683.63;5074830;28;45661;-69
2022/07/03 11:23:27;;;;;;;;;5.00;4.00;;;;;25.83;40.42;101690.34;5075155;28;45358;-67
2022/07/03 11:25:54;;;;;;;;;5.25;4.25;;;;;25.95;41.26;101689.41;5074829;28;45538;-67
2022/07/03 11:28:32;;;;;;;;;4.00;3.00;;;;;26.11;40.17;101689.06;5070179;27;45620;-67
2022/07/03 11:31:16;;;;;;;;;3.00;2.00;;;;;26.14;40.39;101684.34;5092589;27;45464;-70
2022/07/03 11:33:56;;;;;;;;;5.50;3.75;;;;;26.31;39.90;101688.38;5076728;28;45679;-67
2022/07/03 11:36:21;;;;;;;;;4.00;4.00;;;;;26.49;39.80;101683.44;5086383;27;45517;-69
2022/07/03 11:38:55;;;;;;;;;3.33;3.33;;;;;26.67;40.19;101684.63;5080130;27;45593;-67
2022/07/03 11:41:21;;;;;;;;;4.25;3.50;;;;;26.65;38.85;101684.75;5077595;27;45559;-66